BrazilFixed distance
La Mision Brazil - Short Mision 50 Kms
18–19 Aug2018
Distance
50km
Finishers
11891 men27 women
Winning time
6:31:45h
Median pace
4.75km/h
Pace distribution
118 finishers · 3.49–7.66 km/h · mean 4.88
Every finisher ran the same 50 km course, so these paces are directly comparable.
Histogram of finisher pace. 118 finishers ranged from 3.49 to 7.66 kilometres per hour, with a mean of 4.88 and a median of 4.75. The busiest band is 4.0 to 4.5 kilometres per hour, with 24 finishers.
Results
Ranks 51–100 of 118
| Rank | Runner | Time | Pace | Cat. | Placing |
|---|---|---|---|---|---|
| 51 | Torres Trail Rub | 10:13:16h | 4.89 | W35 | 10th F · 6th W35 |
| 52 | Deumsoh | 10:13:17h | 4.89 | M45 | 42nd M · 3rd M45 |
| 53 | Up Training | 10:13:38h | 4.89 | M23 | 43rd M · 14th M23 |
| 54 | Glória Trailrun | 10:16:00h | 4.87 | M40 | 44th M · 11th M40 |
| 55 | Rafael Guedes Assessor... | 10:18:38h | 4.85 | M23 | 45th M · 15th M23 |
| 56 | Oficina Multisport | 10:23:33h | 4.81 | M40 | 46th M · 12th M40 |
| 57 | 10:23:50h | 4.81 | M35 | 47th M · 16th M35 | |
| 58 | Itaúna Runners | 10:23:53h | 4.81 | W40 | 11th F · 2nd W40 |
| 59 | Bpm/Furukawa | 10:26:56h | 4.79 | W35 | 12th F · 7th W35 |
| 60 | F.Ibra | 10:32:09h | 4.75 | M35 | 48th M · 17th M35 |
| 61 | Cidade Corrida | 10:36:33h | 4.71 | M35 | 49th M · 18th M35 |
| 62 | 10:36:31h | 4.71 | W35 | 13th F · 8th W35 | |
| 63 | Lobo | 10:39:35h | 4.69 | — | 50th M |
| 64 | Carbono Assessoria Esp... | 10:40:37h | 4.68 | M23 | 51st M · 16th M23 |
| 65 | Upfit / Pedra Grande T... | 10:40:42h | 4.68 | M35 | 52nd M · 19th M35 |
| 66 | Personal Tiago Ribasqui | 10:47:11h | 4.63 | W45 | 14th F · 2nd W45 |
| 67 | Cris.França_Mision | 10:53:49h | 4.59 | M35 | 53rd M · 20th M35 |
| 68 | 10:59:41h | 4.55 | W40 | 15th F · 3rd W40 | |
| 69 | Trb | 11:00:01h | 4.54 | W40 | 16th F · 4th W40 |
| 70 | Lobo Assessoria Esportiva | 11:00:22h | 4.54 | M50 | 54th M · 1st M50 |
| 71 | Lobo Adventure | 11:00:22h | 4.54 | M35 | 54th M · 21st M35 |
| 72 | Enforma | 11:01:56h | 4.53 | M23 | 56th M · 17th M23 |
| 73 | Matadentro Aventura | 11:04:37h | 4.51 | M45 | 57th M · 4th M45 |
| 74 | G-Luz Top Team | 11:05:51h | 4.51 | M35 | 58th M · 22nd M35 |
| 75 | 11:13:53h | 4.45 | M23 | 59th M · 18th M23 | |
| 76 | Live! Trail | 11:15:13h | 4.44 | M40 | 60th M · 13th M40 |
| 77 | Nenhuma | 11:31:19h | 4.34 | M23 | 61st M · 19th M23 |
| 78 | Levanta Poeira | 11:31:31h | 4.34 | M40 | 62nd M · 14th M40 |
| 79 | Ana E Mo Ultra/Fit Labore | 11:32:50h | 4.33 | W45 | 17th F · 3rd W45 |
| 80 | Ubatuba Outdoor | 11:36:33h | 4.31 | M60 | 63rd M · 1st M60 |
| 81 | Personal Tiago Ribasqui | 11:36:41h | 4.31 | W40 | 18th F · 5th W40 |
| 82 | Japi Trail | 11:38:20h | 4.30 | M23 | 64th M · 20th M23 |
| 83 | Bpm/Bbc-Automação | 11:45:08h | 4.25 | M45 | 65th M · 5th M45 |
| 84 | Bonde Do Trail Running | 11:45:07h | 4.25 | M35 | 66th M · 23rd M35 |
| 85 | Levanta Poeira | 11:51:33h | 4.22 | M45 | 67th M · 6th M45 |
| 86 | Nova Equipe | 11:51:48h | 4.21 | W45 | 19th F · 4th W45 |
| 87 | Forester | 11:51:54h | 4.21 | M35 | 68th M · 24th M35 |
| 88 | Rocha | 11:51:52h | 4.21 | M23 | 69th M · 21st M23 |
| 89 | Trb/Bonde | 11:51:53h | 4.21 | W35 | 20th F · 9th W35 |
| 90 | Ejqualy | 11:51:55h | 4.21 | M40 | 70th M · 15th M40 |
| 91 | 11:51:53h | 4.21 | M35 | 71st M · 25th M35 | |
| 92 | #Euamocorreroficial | 12:05:04h | 4.14 | M45 | 72nd M · 7th M45 |
| 93 | Corre Futum | 12:04:59h | 4.14 | M23 | 73rd M · 22nd M23 |
| 94 | 12:17:14h | 4.07 | M45 | 74th M · 8th M45 | |
| 95 | Rc Treinamento/Team Ru... | 12:20:11h | 4.05 | M35 | 75th M · 26th M35 |
| 96 | Rc Treinamento | 12:20:12h | 4.05 | M35 | 76th M · 27th M35 |
| 97 | Upfit | 12:21:17h | 4.05 | M35 | 77th M · 28th M35 |
| 98 | Avulsa | 12:25:00h | 4.03 | W40 | 21st F · 6th W40 |
| 99 | Carbono Assessoria | 12:42:06h | 3.94 | W50 | 22nd F · 1st W50 |
| 100 | Enforma | 12:54:32h | 3.87 | M40 | 78th M · 16th M40 |
- 51Torres Trail Rub10th F · 6th W35Time10:13:16hPace4.89Cat.W35
- 52Deumsoh42nd M · 3rd M45Time10:13:17hPace4.89Cat.M45
- 53Up Training43rd M · 14th M23Time10:13:38hPace4.89Cat.M23
- 54Glória Trailrun44th M · 11th M40Time10:16:00hPace4.87Cat.M40
- 55Rafael Guedes Assessor...45th M · 15th M23Time10:18:38hPace4.85Cat.M23
- 56Oficina Multisport46th M · 12th M40Time10:23:33hPace4.81Cat.M40
- 5747th M · 16th M35Time10:23:50hPace4.81Cat.M35
- 58Itaúna Runners11th F · 2nd W40Time10:23:53hPace4.81Cat.W40
- 59Bpm/Furukawa12th F · 7th W35Time10:26:56hPace4.79Cat.W35
- 60F.Ibra48th M · 17th M35Time10:32:09hPace4.75Cat.M35
- 61Cidade Corrida49th M · 18th M35Time10:36:33hPace4.71Cat.M35
- 6213th F · 8th W35Time10:36:31hPace4.71Cat.W35
- 63Lobo50th MTime10:39:35hPace4.69
- 64Carbono Assessoria Esp...51st M · 16th M23Time10:40:37hPace4.68Cat.M23
- 65Upfit / Pedra Grande T...52nd M · 19th M35Time10:40:42hPace4.68Cat.M35
- 66Personal Tiago Ribasqui14th F · 2nd W45Time10:47:11hPace4.63Cat.W45
- 67Cris.França_Mision53rd M · 20th M35Time10:53:49hPace4.59Cat.M35
- 6815th F · 3rd W40Time10:59:41hPace4.55Cat.W40
- 69Trb16th F · 4th W40Time11:00:01hPace4.54Cat.W40
- 70Lobo Assessoria Esportiva54th M · 1st M50Time11:00:22hPace4.54Cat.M50
- 71Lobo Adventure54th M · 21st M35Time11:00:22hPace4.54Cat.M35
- 72Enforma56th M · 17th M23Time11:01:56hPace4.53Cat.M23
- 73Matadentro Aventura57th M · 4th M45Time11:04:37hPace4.51Cat.M45
- 74G-Luz Top Team58th M · 22nd M35Time11:05:51hPace4.51Cat.M35
- 7559th M · 18th M23Time11:13:53hPace4.45Cat.M23
- 76Live! Trail60th M · 13th M40Time11:15:13hPace4.44Cat.M40
- 77Nenhuma61st M · 19th M23Time11:31:19hPace4.34Cat.M23
- 78Levanta Poeira62nd M · 14th M40Time11:31:31hPace4.34Cat.M40
- 79Ana E Mo Ultra/Fit Labore17th F · 3rd W45Time11:32:50hPace4.33Cat.W45
- 80Ubatuba Outdoor63rd M · 1st M60Time11:36:33hPace4.31Cat.M60
- 81Personal Tiago Ribasqui18th F · 5th W40Time11:36:41hPace4.31Cat.W40
- 82Japi Trail64th M · 20th M23Time11:38:20hPace4.30Cat.M23
- 83Bpm/Bbc-Automação65th M · 5th M45Time11:45:08hPace4.25Cat.M45
- 84Bonde Do Trail Running66th M · 23rd M35Time11:45:07hPace4.25Cat.M35
- 85Levanta Poeira67th M · 6th M45Time11:51:33hPace4.22Cat.M45
- 86Nova Equipe19th F · 4th W45Time11:51:48hPace4.21Cat.W45
- 87Forester68th M · 24th M35Time11:51:54hPace4.21Cat.M35
- 88Rocha69th M · 21st M23Time11:51:52hPace4.21Cat.M23
- 89Trb/Bonde20th F · 9th W35Time11:51:53hPace4.21Cat.W35
- 90Ejqualy70th M · 15th M40Time11:51:55hPace4.21Cat.M40
- 9171st M · 25th M35Time11:51:53hPace4.21Cat.M35
- 92#Euamocorreroficial72nd M · 7th M45Time12:05:04hPace4.14Cat.M45
- 93Corre Futum73rd M · 22nd M23Time12:04:59hPace4.14Cat.M23
- 9474th M · 8th M45Time12:17:14hPace4.07Cat.M45
- 95Rc Treinamento/Team Ru...75th M · 26th M35Time12:20:11hPace4.05Cat.M35
- 96Rc Treinamento76th M · 27th M35Time12:20:12hPace4.05Cat.M35
- 97Upfit77th M · 28th M35Time12:21:17hPace4.05Cat.M35
- 98Avulsa21st F · 6th W40Time12:25:00hPace4.03Cat.W40
- 99Carbono Assessoria22nd F · 1st W50Time12:42:06hPace3.94Cat.W50
- 100Enforma78th M · 16th M40Time12:54:32hPace3.87Cat.M40
Showing ranks 51–100 of 118